Home > Products > Valid Products > MTR

000
SAUS46 KPQR 231553
MTRREO
METAR KREO 231552Z AUTO 00000KT 17/10 A3007 RMK AO1 SLP153 T01720100





000
SAUS46 KPQR 231453
MTRREO
METAR KREO 231452Z AUTO 18004KT 13/07 A3006 RMK AO1 SLP149 T01280072
53005





000
SAUS46 KPQR 231353
MTRREO
METAR KREO 231352Z AUTO 15004KT 12/07 A3005 RMK AO1 SLP148 T01170067





000
SAUS46 KPQR 231258
MTRREO
METAR KREO 231252Z AUTO 14006KT 12/07 A3004 RMK AO1 SLP139 T01220072





000
SAUS46 KPQR 231153
MTRREO
METAR KREO 231152Z AUTO 14007KT 12/07 A3004 RMK AO1 SLP140 T01170072
10183 20111 55000





000
SAUS46 KPQR 231053
MTRREO
METAR KREO 231052Z AUTO 17006KT 11/08 A3004 RMK AO1 SLP139 T01110083





000
SAUS46 KPQR 230953
MTRREO
METAR KREO 230952Z AUTO 16006KT 11/08 A3004 RMK AO1 SLP139 T01110083





000
SAUS46 KPQR 230853
MTRREO
METAR KREO 230852Z AUTO 06003KT 13/10 A3004 RMK AO1 SLP141 T01330100
50004





000
SAUS46 KPQR 230753
MTRREO
METAR KREO 230752Z AUTO 30003KT 16/11 A3004 RMK AO1 SLP139 T01560111
402890128





000
SAUS46 KPQR 230653
MTRREO
METAR KREO 230652Z AUTO 36004KT 16/11 A3004 RMK AO1 SLP138 T01560106





000
SAUS46 KPQR 230553
MTRREO
METAR KREO 230552Z AUTO 15006KT 17/11 A3003 RMK AO1 SLP136 T01670106
10289 20167 51008





000
SAUS46 KPQR 230453
MTRREO
METAR KREO 230452Z AUTO 01003KT 21/11 A3002 RMK AO1 SLP129 T02060106





000
SAUS46 KPQR 230353
MTRREO
METAR KREO 230352Z AUTO 24010KT 19/12 A3006 RMK AO1 WSHFT 0314
SLP148 T01890117





000
SAUS46 KPQR 230333
MTRREO
SPECI KREO 230331Z AUTO 23013G22KT 21/10 A3004 RMK AO1 WSHFT 0314
T02110100





000
SAUS46 KPQR 230253
MTRREO
METAR KREO 230252Z AUTO 11008KT 24/05 A3000 RMK AO1 SLP125 T02440050
53002





000
SAUS46 KPQR 230153
MTRREO
METAR KREO 230152Z AUTO 06007KT 25/05 A2999 RMK AO1 SLP125 T02500050





000
SAUS46 KPQR 230053
MTRREO
METAR KREO 230052Z AUTO 06007KT 27/05 A2999 RMK AO1 SLP121 T02720050





000
SAUS46 KPQR 222353
MTRREO
METAR KREO 222352Z AUTO 05007KT 28/05 A3000 RMK AO1 SLP123 T02780050
10289 20228 58017





000
SAUS46 KPQR 222253
MTRREO
METAR KREO 222252Z AUTO 16005KT 28/05 A3002 RMK AO1 SLP128 T02830050





000
SAUS46 KPQR 222153
MTRREO
METAR KREO 222152Z AUTO 01007KT 28/06 A3003 RMK AO1 SLP135 T02780061





000
SAUS46 KPQR 222058 COR
MTRREO
METAR KREO 222052Z AUTO VRB04KT 27/07 A3005 RMK AO1 SLP140 T02670067
58013





000
SAUS46 KPQR 221953
MTRREO
METAR KREO 221952Z AUTO 00000KT 26/07 A3007 RMK AO1 SLP147 T02560067





000
SAUS46 KPQR 221853
MTRREO
METAR KREO 221852Z AUTO VRB04KT 25/08 A3009 RMK AO1 SLP152 T02500078





000
SAUS46 KPQR 221753
MTRREO
METAR KREO 221752Z AUTO VRB04KT 23/08 A3010 RMK AO1 SLP156 T02330083
10233 20128 50002





000
SAUS46 KPQR 221653
MTRREO
METAR KREO 221652Z AUTO 00000KT 21/08 A3010 RMK AO1 SLP160 T02110083





000
SAUS46 KPQR 221553
MTRREO
METAR KREO 221552Z AUTO 13003KT 19/09 A3010 RMK AO1 SLP163 T01890089





000
SAUS46 KPQR 221453
MTRREO
METAR KREO 221452Z AUTO 14004KT 17/09 A3009 RMK AO1 SLP161 T01670094
53008





000
SAUS46 KPQR 221353
MTRREO
METAR KREO 221352Z AUTO 15006KT 13/08 A3008 RMK AO1 SLP161 T01280083





000
SAUS46 KPQR 221258
MTRREO
METAR KREO 221252Z AUTO 15006KT 14/09 A3006 RMK AO1 SLP149 T01440089





000
SAUS46 KPQR 221153
MTRREO
METAR KREO 221152Z AUTO 15004KT 13/08 A3006 RMK AO1 SLP152 T01330078
10183 20128 51004





000
SAUS46 KPQR 221053
MTRREO
METAR KREO 221052Z AUTO 28003KT 14/08 A3006 RMK AO1 SLP151 T01440083





000
SAUS46 KPQR 220953
MTRREO
METAR KREO 220952Z AUTO 17004KT 14/07 A3005 RMK AO1 SLP144 T01390072





000
SAUS46 KPQR 220853
MTRREO
METAR KREO 220852Z AUTO 12003KT 17/08 A3005 RMK AO1 SLP140 T01670083
53003





000
SAUS46 KPQR 220753
MTRREO
METAR KREO 220752Z AUTO 18005KT 17/08 A3004 RMK AO1 SLP136 T01670083
402560128





000
SAUS46 KPQR 220653
MTRREO
METAR KREO 220652Z AUTO 12004KT 18/09 A3004 RMK AO1 SLP137 T01830089





000
SAUS46 KPQR 220553
MTRREO
METAR KREO 220552Z AUTO 15007KT 18/09 A3004 RMK AO1 SLP137 T01830089
10233 20183 52003





000
SAUS46 KPQR 220453
MTRREO
METAR KREO 220452Z AUTO 13013KT 18/08 A3003 RMK AO1 SLP137 T01830083





000
SAUS46 KPQR 220353
MTRREO
METAR KREO 220352Z AUTO 13012KT 19/08 A3003 RMK AO1 SLP139 T01890083





000
SAUS46 KPQR 220253
MTRREO
METAR KREO 220252Z AUTO 13016KT 19/09 A3003 RMK AO1 SLP139 T01940089
53005





000
SAUS46 KPQR 220153
MTRREO
METAR KREO 220152Z AUTO 15014KT 21/09 A3002 RMK AO1 SLP134 T02060089





000
SAUS46 KPQR 220053
MTRREO
METAR KREO 220052Z AUTO 13009KT 23/08 A3001 RMK AO1 SLP131 T02280083





000
SAUS46 KPQR 212353
MTRREO
METAR KREO 212352Z AUTO 13013KT 23/09 A3001 RMK AO1 SLP133 T02280089
10256 20217 58008





000
SAUS46 KPQR 212253
MTRREO
METAR KREO 212252Z AUTO 14019KT 22/09 A3003 RMK AO1 PK WND
14029/2220 SLP139 T02220089





000
SAUS46 KPQR 212153
MTRREO
METAR KREO 212152Z AUTO 15020G24KT 26/08 A3003 RMK AO1 SLP132
T02560083





000
SAUS46 KPQR 212053
MTRREO
METAR KREO 212052Z AUTO VRB03KT 25/06 A3004 RMK AO1 SLP136 T02500061
58011





000
SAUS46 KPQR 211953
MTRREO
METAR KREO 211952Z AUTO VRB04KT 25/07 A3006 RMK AO1 SLP140 T02500067





000
SAUS46 KPQR 211853
MTRREO
METAR KREO 211852Z AUTO 31003KT 23/07 A3007 RMK AO1 SLP148 T02330067





000
SAUS46 KPQR 211755
MTRREO
METAR KREO 211752Z AUTO 22003KT 22/08 A3007 RMK AO1 SLP149 T02220078
10222 20128 58000





000
SAUS46 KPQR 211653
MTRREO
METAR KREO 211652Z AUTO 04006KT 21/06 A3008 RMK AO1 SLP151 T02110056





000
SAUS46 KPQR 211553
MTRREO
METAR KREO 211552Z AUTO 04005KT 18/04 A3008 RMK AO1 SLP153 T01830044





000
SAUS46 KPQR 211453
MTRREO
METAR KREO 211452Z AUTO 00000KT 17/06 A3008 RMK AO1 SLP150 T01670061
53005





000
SAUS46 KPQR 211353
MTRREO
METAR KREO 211352Z AUTO 14009KT 17/08 A3006 RMK AO1 SLP143 T01670083





000
SAUS46 KPQR 211257
MTRREO
METAR KREO 211252Z AUTO 00000KT 14/02 A3006 RMK AO1 SLP140 T01440022





000
SAUS46 KPQR 211153
MTRREO
METAR KREO 211152Z AUTO 00000KT 14/02 A3006 RMK AO1 SLP139 T01390022
10194 20128 58001





000
SAUS46 KPQR 211053
MTRREO
METAR KREO 211052Z AUTO 25003KT 14/02 A3007 RMK AO1 SLP141 T01390022





000
SAUS46 KPQR 210953
MTRREO
METAR KREO 210952Z AUTO 22004KT 16/03 A3006 RMK AO1 SLP139 T01610028





000
SAUS46 KPQR 210853
MTRREO
METAR KREO 210852Z AUTO 05006KT 17/03 A3006 RMK AO1 SLP140 T01670028
50001





000
SAUS46 KPQR 210753
MTRREO
METAR KREO 210752Z AUTO 05007KT 18/03 A3007 RMK AO1 SLP141 T01780033
403110072





000
SAUS46 KPQR 210653
MTRREO
METAR KREO 210652Z AUTO 07006KT 19/03 A3007 RMK AO1 SLP145 T01890033





000
SAUS46 KPQR 210553
MTRREO
METAR KREO 210552Z AUTO 04006KT 19/03 A3006 RMK AO1 SLP143 T01940033
10311 20194 50004





000
SAUS46 KPQR 210454
MTRREO
METAR KREO 210452Z AUTO 03007KT 21/04 A3006 RMK AO1 SLP145 T02060039





000
SAUS46 KPQR 210353
MTRREO
METAR KREO 210352Z AUTO 01007KT 23/04 A3006 RMK AO1 SLP147 T02280039





000
SAUS46 KPQR 210253
MTRREO
METAR KREO 210252Z AUTO 01009KT 24/04 A3004 RMK AO1 SLP143 T02440039
53003





000
SAUS46 KPQR 210153
MTRREO
METAR KREO 210152Z AUTO 36010KT 27/04 A3003 RMK AO1 SLP142 T02720039





000
SAUS46 KPQR 210053
MTRREO
METAR KREO 210052Z AUTO 02009KT 30/00 A3002 RMK AO1 SLP133 T03000000





000
SAUS46 KPQR 202353
MTRREO
METAR KREO 202352Z AUTO 04010KT 31/01 A3003 RMK AO1 SLP135 T03110006
10311 20228 56017





000
SAUS46 KPQR 202253
MTRREO
METAR KREO 202252Z AUTO 01009KT 31/02 A3005 RMK AO1 SLP140 T03110022





000
SAUS46 KPQR 202153
MTRREO
METAR KREO 202152Z AUTO VRB06KT 30/03 A3007 RMK AO1 SLP149 T03000028





000
SAUS46 KPQR 202053
MTRREO
METAR KREO 202052Z AUTO 07008KT 030V110 29/03 A3009 RMK AO1 SLP157
T02890028 58021





000
SAUS46 KPQR 201953
MTRREO
METAR KREO 201952Z AUTO 27/03 A3012 RMK AO1 SLP168 T02720033





000
SAUS46 KPQR 201855
MTRREO
METAR KREO 201852Z AUTO 36007KT 26/04 A3014 RMK AO1 SLP178 T02560039





000
SAUS46 KPQR 201753
MTRREO
METAR KREO 201752Z AUTO VRB06KT 23/04 A3016 RMK AO1 SLP182 T02280039
10228 20072 58005





000
SAUS46 KPQR 201657 COR
MTRREO
METAR KREO 201652Z AUTO 01007KT 21/04 A3018 RMK AO1 SLP191 T02060044





    US Dept of Commerce
    National Oceanic and Atmospheric Administration
    National Weather Service
    1325 East West Highway
    Silver Spring, MD 20910
    Page Author: NWS Internet Services Team
Disclaimer
Information Quality
Credits
Glossary
Privacy Policy
Freedom of Information Act (FOIA)
About Us
Career Opportunities